createdAt,value
2023-04-18T00:00:02.625Z,464.85
2023-04-18T00:00:22.637Z,464.87
2023-04-18T00:00:32.616Z,464.79
2023-04-18T00:00:42.629Z,464.79
2023-04-18T00:00:52.638Z,464.74
2023-04-18T00:01:02.620Z,464.80
2023-04-18T00:01:12.620Z,464.76
2023-04-18T00:01:32.639Z,464.81
2023-04-18T00:01:42.665Z,464.97
2023-04-18T00:01:52.719Z,464.90
2023-04-18T00:02:02.681Z,464.97
2023-04-18T00:02:12.710Z,464.85
2023-04-18T00:02:22.814Z,464.97
2023-04-18T00:02:42.752Z,465.15
2023-04-18T00:02:52.845Z,465.05
2023-04-18T00:03:04.355Z,464.99
2023-04-18T00:03:12.804Z,464.99
2023-04-18T00:03:22.836Z,465.02
2023-04-18T00:03:32.812Z,465.10
2023-04-18T00:03:42.979Z,465.06
2023-04-18T00:03:52.839Z,465.10
2023-04-18T00:04:13.004Z,465.23
2023-04-18T00:04:22.760Z,465.11
2023-04-18T00:04:32.722Z,465.03
2023-04-18T00:04:42.773Z,465.04
2023-04-18T00:04:52.744Z,464.98
2023-04-18T00:05:02.738Z,465.18
2023-04-18T00:05:12.679Z,465.37
2023-04-18T00:05:32.656Z,465.32
2023-04-18T00:05:42.650Z,465.10
2023-04-18T00:05:52.637Z,465.04
2023-04-18T00:06:02.662Z,464.83
2023-04-18T00:06:12.641Z,465.14
2023-04-18T00:06:22.677Z,465.24
2023-04-18T00:06:32.646Z,465.42
2023-04-18T00:06:42.645Z,465.28
2023-04-18T00:06:52.649Z,465.15
2023-04-18T00:07:02.649Z,465.21
2023-04-18T00:07:12.638Z,465.19
2023-04-18T00:07:22.647Z,465.31
2023-04-18T00:07:32.640Z,465.40
2023-04-18T00:07:42.662Z,465.25
2023-04-18T00:07:52.687Z,465.13
2023-04-18T00:08:02.648Z,465.14
2023-04-18T00:08:12.642Z,465.27
2023-04-18T00:08:22.651Z,465.06
2023-04-18T00:08:32.650Z,465.35
2023-04-18T00:08:42.683Z,465.07
2023-04-18T00:08:52.681Z,465.34
2023-04-18T00:09:02.669Z,465.28
2023-04-18T00:09:12.687Z,465.44
2023-04-18T00:09:22.721Z,464.98
2023-04-18T00:09:32.717Z,465.29
2023-04-18T00:09:52.655Z,465.08
2023-04-18T00:10:02.669Z,465.02
2023-04-18T00:10:12.671Z,465.02
2023-04-18T00:10:22.659Z,465.02
2023-04-18T00:10:32.660Z,465.05
2023-04-18T00:10:42.660Z,465.06
2023-04-18T00:10:52.673Z,465.05
2023-04-18T00:11:02.656Z,464.99
2023-04-18T00:11:12.660Z,465.02
2023-04-18T00:11:32.661Z,464.86
2023-04-18T00:11:42.662Z,464.81
2023-04-18T00:11:52.695Z,464.70
2023-04-18T00:12:02.664Z,464.75
2023-04-18T00:12:12.669Z,464.70
2023-04-18T00:12:22.665Z,464.78
2023-04-18T00:12:32.696Z,464.85
2023-04-18T00:12:42.665Z,464.75
2023-04-18T00:12:52.666Z,464.72
2023-04-18T00:13:02.673Z,464.82
2023-04-18T00:13:12.677Z,464.79
2023-04-18T00:13:22.670Z,464.79
2023-04-18T00:13:42.727Z,464.80
2023-04-18T00:13:52.680Z,464.80
2023-04-18T00:14:02.687Z,464.94
2023-04-18T00:14:12.903Z,464.85
2023-04-18T00:14:22.670Z,464.74
2023-04-18T00:14:32.685Z,464.84
2023-04-18T00:14:52.679Z,465.06
2023-04-18T00:15:02.701Z,465.05
2023-04-18T00:15:12.714Z,464.60
2023-04-18T00:15:22.679Z,464.88
2023-04-18T00:15:32.692Z,464.91
2023-04-18T00:15:42.696Z,465.09
2023-04-18T00:15:52.681Z,465.02
2023-04-18T00:16:12.721Z,464.88
2023-04-18T00:16:22.750Z,464.88
2023-04-18T00:16:32.705Z,465.03
2023-04-18T00:16:42.749Z,465.15
2023-04-18T00:16:52.717Z,465.03
2023-04-18T00:17:02.776Z,465.35
2023-04-18T00:17:12.715Z,465.17
2023-04-18T00:17:32.698Z,465.25
2023-04-18T00:17:42.709Z,465.19
2023-04-18T00:17:52.784Z,465.31
2023-04-18T00:18:02.722Z,465.20
2023-04-18T00:18:12.708Z,465.33
2023-04-18T00:18:22.688Z,465.36
2023-04-18T00:18:32.697Z,465.41
2023-04-18T00:18:42.688Z,465.46
2023-04-18T00:18:52.695Z,465.41
2023-04-18T00:19:02.708Z,465.30
2023-04-18T00:19:12.696Z,465.33
2023-04-18T00:19:22.726Z,464.98
2023-04-18T00:19:32.693Z,465.28
2023-04-18T00:19:42.712Z,465.30
2023-04-18T00:19:52.701Z,465.23
2023-04-18T00:20:02.696Z,465.42
2023-04-18T00:20:12.813Z,465.43
2023-04-18T00:20:32.730Z,465.58
2023-04-18T00:20:42.710Z,465.56
2023-04-18T00:20:52.696Z,465.74
2023-04-18T00:21:02.715Z,465.60
2023-04-18T00:21:12.701Z,465.60
2023-04-18T00:21:22.738Z,465.55
2023-04-18T00:21:42.707Z,465.29
2023-04-18T00:21:52.712Z,465.41
2023-04-18T00:22:02.726Z,465.40
2023-04-18T00:22:12.707Z,465.79
2023-04-18T00:22:22.730Z,465.70
2023-04-18T00:22:32.721Z,465.55
2023-04-18T00:22:43.038Z,465.83
2023-04-18T00:22:52.709Z,465.80
2023-04-18T00:23:02.707Z,465.99
2023-04-18T00:23:13.529Z,465.88
2023-04-18T00:23:22.722Z,465.69
2023-04-18T00:23:32.723Z,465.85
2023-04-18T00:23:52.739Z,465.88
2023-04-18T00:24:02.723Z,465.48
2023-04-18T00:24:12.935Z,465.82
2023-04-18T00:24:22.717Z,465.00
2023-04-18T00:24:32.719Z,465.58
2023-04-18T00:24:42.748Z,465.85
2023-04-18T00:25:02.747Z,465.61
2023-04-18T00:25:12.724Z,466.03
2023-04-18T00:25:22.724Z,465.77
2023-04-18T00:25:32.723Z,465.54
2023-04-18T00:25:42.739Z,465.85
2023-04-18T00:25:52.724Z,465.43
2023-04-18T00:26:12.731Z,465.32
2023-04-18T00:26:22.725Z,465.33
2023-04-18T00:26:32.758Z,465.62
2023-04-18T00:26:42.726Z,465.92
2023-04-18T00:26:52.731Z,465.75
2023-04-18T00:27:02.748Z,465.39
2023-04-18T00:27:12.734Z,465.06
2023-04-18T00:27:22.729Z,465.12
2023-04-18T00:27:42.730Z,465.60
2023-04-18T00:27:52.732Z,465.59
2023-04-18T00:28:02.745Z,465.50
2023-04-18T00:28:12.757Z,465.70
2023-04-18T00:28:22.733Z,465.60
2023-04-18T00:28:32.737Z,465.61
2023-04-18T00:28:42.756Z,465.61
2023-04-18T00:28:52.776Z,465.85
2023-04-18T00:29:02.741Z,465.62
2023-04-18T00:29:12.760Z,465.79
2023-04-18T00:29:22.758Z,465.86
2023-04-18T00:29:32.739Z,465.96
2023-04-18T00:29:42.766Z,465.87
2023-04-18T00:30:02.764Z,466.04
2023-04-18T00:30:12.743Z,466.19
2023-04-18T00:30:22.753Z,466.07
2023-04-18T00:30:32.786Z,466.17
2023-04-18T00:30:42.771Z,466.23
2023-04-18T00:30:52.822Z,465.84
2023-04-18T00:31:02.781Z,466.11
2023-04-18T00:31:12.770Z,465.87
2023-04-18T00:31:32.766Z,466.05
2023-04-18T00:31:42.749Z,465.97
2023-04-18T00:31:52.751Z,466.00
2023-04-18T00:32:02.763Z,465.99
2023-04-18T00:32:12.759Z,465.43
2023-04-18T00:32:22.808Z,465.81
2023-04-18T00:32:42.838Z,465.76
2023-04-18T00:32:52.805Z,465.33
2023-04-18T00:33:02.798Z,465.53
2023-04-18T00:33:12.772Z,465.87
2023-04-18T00:33:22.762Z,465.64
2023-04-18T00:33:32.772Z,465.58
2023-04-18T00:33:42.777Z,465.46
2023-04-18T00:33:52.766Z,465.81
2023-04-18T00:34:02.781Z,466.24
2023-04-18T00:34:13.018Z,465.68
2023-04-18T00:34:22.773Z,465.77
2023-04-18T00:34:42.788Z,465.82
2023-04-18T00:34:52.777Z,465.83
2023-04-18T00:35:02.795Z,465.73
2023-04-18T00:35:12.790Z,465.77
2023-04-18T00:35:22.805Z,465.85
2023-04-18T00:35:32.767Z,465.75
2023-04-18T00:35:52.768Z,465.91
2023-04-18T00:36:02.783Z,465.68
2023-04-18T00:36:12.781Z,465.57
2023-04-18T00:36:22.787Z,465.36
2023-04-18T00:36:32.771Z,465.47
2023-04-18T00:36:42.788Z,465.63
2023-04-18T00:37:02.786Z,465.82
2023-04-18T00:37:12.787Z,465.74
2023-04-18T00:37:22.792Z,465.56
2023-04-18T00:37:32.774Z,465.63
2023-04-18T00:37:42.805Z,465.66
2023-04-18T00:37:52.784Z,465.59
2023-04-18T00:38:02.779Z,465.52
2023-04-18T00:38:12.783Z,465.53
2023-04-18T00:38:32.782Z,465.75
2023-04-18T00:38:42.799Z,465.65
2023-04-18T00:38:52.790Z,465.35
2023-04-18T00:39:02.796Z,465.62
2023-04-18T00:39:12.786Z,465.85
2023-04-18T00:39:22.803Z,465.85
2023-04-18T00:39:32.795Z,465.67
2023-04-18T00:39:42.798Z,465.76
2023-04-18T00:39:52.793Z,465.58
2023-04-18T00:40:02.812Z,465.79
2023-04-18T00:40:12.788Z,465.52
2023-04-18T00:40:22.808Z,465.52
2023-04-18T00:40:32.805Z,465.86
2023-04-18T00:40:42.809Z,465.43
2023-04-18T00:40:52.795Z,465.59
2023-04-18T00:41:02.805Z,465.54
2023-04-18T00:41:12.792Z,465.61
2023-04-18T00:41:22.795Z,465.67
2023-04-18T00:41:32.837Z,465.60
2023-04-18T00:41:52.821Z,465.70
2023-04-18T00:42:02.814Z,465.35
2023-04-18T00:42:12.799Z,465.35
2023-04-18T00:42:22.793Z,465.43
2023-04-18T00:42:32.805Z,465.59
2023-04-18T00:42:42.808Z,465.73
2023-04-18T00:43:02.817Z,465.92
2023-04-18T00:43:12.805Z,465.47
2023-04-18T00:43:22.809Z,465.55
2023-04-18T00:43:32.814Z,465.60
2023-04-18T00:43:42.810Z,465.77
2023-04-18T00:43:52.806Z,465.65
2023-04-18T00:44:02.811Z,465.73
2023-04-18T00:44:13.148Z,465.64
2023-04-18T00:44:22.807Z,465.66
2023-04-18T00:44:32.809Z,465.78
2023-04-18T00:44:42.825Z,465.56
2023-04-18T00:44:52.816Z,465.70
2023-04-18T00:45:12.816Z,465.75
2023-04-18T00:45:22.816Z,465.79
2023-04-18T00:45:32.818Z,465.76
2023-04-18T00:45:42.866Z,465.68
2023-04-18T00:45:52.859Z,465.73
2023-04-18T00:46:02.837Z,465.77
2023-04-18T00:46:12.837Z,465.76
2023-04-18T00:46:32.973Z,465.76
2023-04-18T00:46:42.821Z,465.71
2023-04-18T00:46:52.822Z,465.44
2023-04-18T00:47:02.844Z,465.60
2023-04-18T00:47:12.815Z,465.74
2023-04-18T00:47:22.850Z,465.68
2023-04-18T00:47:32.884Z,465.48
2023-04-18T00:47:42.845Z,465.56
2023-04-18T00:47:52.943Z,465.57
2023-04-18T00:48:02.879Z,465.66
2023-04-18T00:48:12.806Z,465.60
2023-04-18T00:48:22.826Z,465.70
2023-04-18T00:48:32.822Z,465.74
2023-04-18T00:48:42.824Z,465.66
2023-04-18T00:48:52.834Z,465.59
2023-04-18T00:49:02.859Z,465.51
2023-04-18T00:49:12.850Z,465.41
2023-04-18T00:49:22.828Z,465.44
2023-04-18T00:49:32.825Z,465.60
2023-04-18T00:49:42.827Z,465.63
2023-04-18T00:49:52.839Z,465.60
2023-04-18T00:50:12.837Z,465.63
2023-04-18T00:50:22.852Z,465.61
2023-04-18T00:50:32.829Z,465.62
2023-04-18T00:50:42.836Z,465.64
2023-04-18T00:50:52.836Z,465.87
2023-04-18T00:51:02.842Z,465.86
2023-04-18T00:51:22.836Z,465.93
2023-04-18T00:51:32.839Z,465.87
2023-04-18T00:51:42.838Z,465.85
2023-04-18T00:51:52.836Z,465.83
2023-04-18T00:52:02.843Z,465.92
2023-04-18T00:52:12.856Z,465.93
2023-04-18T00:52:22.850Z,465.78
2023-04-18T00:52:32.848Z,465.88
2023-04-18T00:52:42.843Z,465.93
2023-04-18T00:52:52.870Z,466.01
2023-04-18T00:53:02.843Z,465.97
2023-04-18T00:53:12.845Z,465.83
2023-04-18T00:53:22.847Z,465.75
2023-04-18T00:53:32.864Z,465.84
2023-04-18T00:53:42.843Z,465.96
2023-04-18T00:54:02.842Z,466.10
2023-04-18T00:54:13.129Z,466.07
2023-04-18T00:54:22.863Z,465.95
2023-04-18T00:54:32.851Z,466.01
2023-04-18T00:54:42.853Z,465.89
2023-04-18T00:54:52.847Z,466.16
2023-04-18T00:55:02.866Z,465.89
2023-04-18T00:55:22.880Z,465.83
2023-04-18T00:55:32.866Z,466.16
2023-04-18T00:55:42.846Z,466.00
2023-04-18T00:55:52.850Z,465.53
2023-04-18T00:56:02.852Z,465.51
2023-04-18T00:56:12.875Z,466.01
2023-04-18T00:56:22.873Z,465.80
2023-04-18T00:56:32.860Z,466.06
2023-04-18T00:56:42.859Z,466.30
2023-04-18T00:56:52.864Z,465.48
2023-04-18T00:57:02.871Z,466.00
2023-04-18T00:57:12.896Z,465.74
2023-04-18T00:57:32.867Z,465.51
2023-04-18T00:57:42.870Z,465.84
2023-04-18T00:57:52.874Z,465.86
2023-04-18T00:58:02.864Z,465.56
2023-04-18T00:58:12.864Z,465.84
2023-04-18T00:58:22.865Z,465.63
2023-04-18T00:58:32.861Z,465.89
2023-04-18T00:58:42.863Z,465.97
2023-04-18T00:58:52.866Z,465.63
2023-04-18T00:59:02.880Z,465.66
2023-04-18T00:59:12.870Z,466.00
2023-04-18T00:59:22.871Z,466.02
2023-04-18T00:59:32.861Z,466.06
2023-04-18T00:59:42.868Z,466.04
2023-04-18T00:59:52.874Z,466.02
2023-04-18T01:00:02.921Z,466.02
2023-04-18T01:00:12.907Z,466.00
2023-04-18T01:00:22.872Z,466.11
2023-04-18T01:00:32.877Z,465.98
2023-04-18T01:00:42.877Z,465.95
2023-04-18T01:00:52.872Z,466.27
2023-04-18T01:01:03.007Z,465.86
2023-04-18T01:01:23.066Z,466.03
2023-04-18T01:01:32.910Z,466.06
2023-04-18T01:01:42.913Z,466.20
2023-04-18T01:01:53.077Z,466.25
2023-04-18T01:02:02.957Z,466.35
2023-04-18T01:02:12.881Z,466.20
2023-04-18T01:02:33.016Z,466.18
2023-04-18T01:02:42.973Z,466.06
2023-04-18T01:02:52.982Z,466.04
2023-04-18T01:03:03.139Z,466.08
2023-04-18T01:03:13.066Z,466.21
2023-04-18T01:03:23.093Z,466.27
2023-04-18T01:03:43.231Z,466.52
2023-04-18T01:03:53.117Z,466.39
2023-04-18T01:04:02.975Z,466.57
2023-04-18T01:04:13.523Z,465.92
2023-04-18T01:04:22.970Z,466.28
2023-04-18T01:04:33.071Z,466.22
2023-04-18T01:04:52.884Z,466.43
2023-04-18T01:05:02.922Z,466.42
2023-04-18T01:05:12.910Z,466.44
2023-04-18T01:05:22.891Z,466.48
2023-04-18T01:05:32.906Z,466.50
2023-04-18T01:05:42.899Z,466.52
2023-04-18T01:05:52.892Z,466.61
2023-04-18T01:06:02.928Z,466.30
2023-04-18T01:06:12.898Z,466.28
2023-04-18T01:06:22.907Z,466.18
2023-04-18T01:06:32.900Z,466.36
2023-04-18T01:06:42.943Z,466.43
2023-04-18T01:06:52.897Z,466.11
2023-04-18T01:07:02.909Z,466.28
2023-04-18T01:07:12.918Z,466.05
2023-04-18T01:07:22.925Z,466.21
2023-04-18T01:07:32.908Z,466.29
2023-04-18T01:07:42.906Z,465.93
2023-04-18T01:07:52.903Z,465.91
2023-04-18T01:08:02.950Z,466.54
2023-04-18T01:08:22.911Z,466.73
2023-04-18T01:08:32.910Z,466.13
2023-04-18T01:08:42.911Z,466.38
2023-04-18T01:08:52.919Z,466.32
2023-04-18T01:09:02.912Z,466.42
2023-04-18T01:09:12.925Z,466.32
2023-04-18T01:09:22.910Z,466.27
2023-04-18T01:09:32.929Z,466.35
2023-04-18T01:09:42.917Z,466.12
2023-04-18T01:09:52.919Z,466.37
2023-04-18T01:10:02.929Z,466.41
2023-04-18T01:10:22.914Z,466.06
2023-04-18T01:10:32.924Z,466.40
2023-04-18T01:10:42.926Z,466.61
2023-04-18T01:10:52.914Z,466.11
2023-04-18T01:11:02.935Z,466.55
2023-04-18T01:11:12.926Z,466.47
2023-04-18T01:11:22.919Z,466.33
2023-04-18T01:11:32.933Z,466.65
2023-04-18T01:11:42.930Z,466.70
2023-04-18T01:11:52.921Z,466.33
2023-04-18T01:12:02.917Z,466.44
2023-04-18T01:12:12.946Z,466.47
2023-04-18T01:12:22.919Z,466.74
2023-04-18T01:12:42.923Z,465.98
2023-04-18T01:12:52.952Z,465.73
2023-04-18T01:13:02.933Z,465.97
2023-04-18T01:13:12.921Z,466.25
2023-04-18T01:13:22.939Z,466.80
2023-04-18T01:13:32.943Z,466.74
2023-04-18T01:13:42.925Z,466.23
2023-04-18T01:13:52.935Z,466.62
2023-04-18T01:14:02.964Z,466.57
2023-04-18T01:14:13.180Z,466.65
2023-04-18T01:14:22.928Z,466.64
2023-04-18T01:14:32.947Z,466.17
2023-04-18T01:14:42.928Z,466.19
2023-04-18T01:14:52.932Z,466.92
2023-04-18T01:15:12.930Z,466.81
2023-04-18T01:15:22.958Z,466.73
2023-04-18T01:15:32.973Z,467.00
2023-04-18T01:15:42.963Z,466.85
2023-04-18T01:15:52.990Z,466.97
2023-04-18T01:16:03.059Z,467.13
2023-04-18T01:16:12.979Z,466.46
2023-04-18T01:16:23.049Z,466.94
2023-04-18T01:16:33.027Z,466.87
2023-04-18T01:16:42.940Z,466.81
2023-04-18T01:16:52.975Z,466.66
2023-04-18T01:17:12.948Z,466.99
2023-04-18T01:17:22.960Z,467.13
2023-04-18T01:17:32.962Z,466.89
2023-04-18T01:17:42.994Z,467.25
2023-04-18T01:17:52.984Z,466.79
2023-04-18T01:18:03.018Z,466.49
2023-04-18T01:18:12.955Z,466.71
2023-04-18T01:18:22.952Z,466.90
2023-04-18T01:18:32.949Z,467.03
2023-04-18T01:18:42.968Z,466.52
2023-04-18T01:18:52.960Z,466.68
2023-04-18T01:19:02.948Z,466.68
2023-04-18T01:19:12.959Z,466.93
2023-04-18T01:19:22.955Z,467.03
2023-04-18T01:19:32.954Z,466.80
2023-04-18T01:19:42.957Z,467.11
2023-04-18T01:19:52.973Z,466.80
2023-04-18T01:20:02.966Z,466.98
2023-04-18T01:20:12.962Z,467.03
2023-04-18T01:20:22.970Z,466.86
2023-04-18T01:20:32.989Z,467.00
2023-04-18T01:20:42.975Z,467.14
2023-04-18T01:20:52.961Z,466.93
2023-04-18T01:21:02.960Z,467.48
2023-04-18T01:21:12.960Z,467.38
2023-04-18T01:21:22.982Z,467.34
2023-04-18T01:21:42.968Z,467.39
2023-04-18T01:21:52.970Z,467.07
2023-04-18T01:22:02.976Z,466.61
2023-04-18T01:22:12.963Z,466.72
2023-04-18T01:22:22.988Z,466.45
2023-04-18T01:22:32.973Z,466.30
2023-04-18T01:22:42.974Z,466.86
2023-04-18T01:22:52.979Z,466.88
2023-04-18T01:23:02.975Z,467.07
2023-04-18T01:23:12.983Z,467.14
2023-04-18T01:23:22.971Z,466.70
2023-04-18T01:23:32.977Z,466.74
2023-04-18T01:23:42.981Z,466.42
2023-04-18T01:23:52.980Z,466.73
2023-04-18T01:24:02.980Z,466.57
2023-04-18T01:24:13.200Z,466.57
2023-04-18T01:24:23.001Z,466.69
2023-04-18T01:24:32.982Z,466.52
2023-04-18T01:24:52.986Z,466.80
2023-04-18T01:25:02.983Z,466.60
2023-04-18T01:25:12.982Z,466.77
2023-04-18T01:25:22.988Z,466.86
2023-04-18T01:25:32.992Z,467.29
2023-04-18T01:25:42.986Z,466.92
2023-04-18T01:25:53.023Z,466.76
2023-04-18T01:26:03.009Z,466.60
2023-04-18T01:26:12.994Z,466.30
2023-04-18T01:26:22.986Z,466.61
2023-04-18T01:26:32.984Z,466.90
2023-04-18T01:26:43.004Z,467.14
2023-04-18T01:27:03.023Z,467.01
2023-04-18T01:27:12.986Z,467.51
2023-04-18T01:27:22.991Z,466.20
2023-04-18T01:27:32.993Z,467.31
2023-04-18T01:27:43.024Z,467.41
2023-04-18T01:27:53.086Z,466.58
2023-04-18T01:28:02.998Z,466.96
2023-04-18T01:28:12.995Z,467.04
2023-04-18T01:28:23.032Z,467.18
2023-04-18T01:28:33.009Z,466.86
2023-04-18T01:28:53.009Z,466.88
2023-04-18T01:29:03.015Z,466.78
2023-04-18T01:29:13.004Z,466.89
2023-04-18T01:29:23.002Z,466.79
2023-04-18T01:29:33.007Z,466.78
2023-04-18T01:29:43.003Z,466.92
2023-04-18T01:29:53.027Z,466.43
2023-04-18T01:30:03.023Z,466.10
2023-04-18T01:30:13.018Z,466.63
2023-04-18T01:30:23.015Z,466.75
2023-04-18T01:30:33.018Z,466.80
2023-04-18T01:30:43.024Z,466.53
2023-04-18T01:31:03.072Z,466.94
2023-04-18T01:31:13.078Z,466.71
2023-04-18T01:31:23.103Z,466.16
2023-04-18T01:31:33.069Z,466.71
2023-04-18T01:31:43.152Z,466.92
2023-04-18T01:31:53.015Z,466.54
2023-04-18T01:32:03.037Z,466.71
2023-04-18T01:32:13.016Z,466.61
2023-04-18T01:32:33.048Z,466.80
2023-04-18T01:32:43.085Z,466.79
2023-04-18T01:32:53.079Z,466.31
2023-04-18T01:33:03.074Z,466.02
2023-04-18T01:33:13.031Z,466.11
2023-04-18T01:33:23.025Z,466.87
2023-04-18T01:33:33.030Z,466.75
2023-04-18T01:33:43.030Z,466.69
2023-04-18T01:33:53.057Z,466.61
2023-04-18T01:34:13.188Z,466.79
2023-04-18T01:34:23.038Z,466.54
2023-04-18T01:34:33.029Z,466.17
2023-04-18T01:34:43.029Z,466.49
2023-04-18T01:34:53.042Z,466.62
2023-04-18T01:35:03.054Z,466.72
2023-04-18T01:35:23.036Z,467.09
2023-04-18T01:35:33.043Z,467.06
2023-04-18T01:35:43.042Z,466.91
2023-04-18T01:35:53.067Z,466.74
2023-04-18T01:36:03.063Z,466.73
2023-04-18T01:36:13.050Z,466.63
2023-04-18T01:36:23.039Z,467.01
2023-04-18T01:36:33.046Z,466.67
2023-04-18T01:36:43.036Z,467.04
2023-04-18T01:36:53.041Z,467.07
2023-04-18T01:37:13.045Z,466.98
2023-04-18T01:37:23.070Z,466.53
2023-04-18T01:37:33.047Z,466.88
2023-04-18T01:37:43.046Z,466.43
2023-04-18T01:37:53.043Z,466.91
2023-04-18T01:38:03.054Z,466.77
2023-04-18T01:38:13.077Z,466.84
2023-04-18T01:38:33.080Z,466.97
2023-04-18T01:38:43.050Z,466.98
2023-04-18T01:38:53.052Z,466.53
2023-04-18T01:39:03.055Z,466.64
2023-04-18T01:39:13.070Z,466.94
2023-04-18T01:39:23.054Z,466.83
2023-04-18T01:39:33.061Z,466.98
2023-04-18T01:39:43.064Z,466.71
2023-04-18T01:39:53.047Z,466.79
2023-04-18T01:40:03.083Z,467.15
2023-04-18T01:40:13.071Z,467.07
2023-04-18T01:40:23.059Z,467.11
2023-04-18T01:40:33.059Z,467.22
2023-04-18T01:40:43.089Z,467.00
2023-04-18T01:40:53.065Z,467.38
2023-04-18T01:41:03.081Z,467.34
2023-04-18T01:41:13.070Z,466.93
2023-04-18T01:41:23.063Z,466.77
2023-04-18T01:41:33.186Z,466.57
2023-04-18T01:41:53.085Z,466.97
2023-04-18T01:42:03.079Z,467.24
2023-04-18T01:42:13.068Z,467.64
2023-04-18T01:42:23.087Z,467.17
2023-04-18T01:42:33.072Z,467.12
2023-04-18T01:42:43.073Z,467.35
2023-04-18T01:43:03.064Z,467.35
2023-04-18T01:43:13.072Z,467.30
2023-04-18T01:43:23.092Z,467.13
2023-04-18T01:43:33.073Z,467.37
2023-04-18T01:43:43.080Z,467.64
2023-04-18T01:43:53.070Z,467.01
2023-04-18T01:44:03.069Z,467.08
2023-04-18T01:44:13.350Z,466.81
2023-04-18T01:44:23.067Z,467.32
2023-04-18T01:44:33.101Z,467.59
2023-04-18T01:44:43.077Z,467.12
2023-04-18T01:44:53.070Z,467.43
2023-04-18T01:45:13.081Z,467.59
2023-04-18T01:45:23.070Z,467.44
2023-04-18T01:45:33.069Z,467.61
2023-04-18T01:45:43.085Z,467.64
2023-04-18T01:45:53.073Z,467.72
2023-04-18T01:46:03.078Z,467.63
2023-04-18T01:46:13.099Z,467.64
2023-04-18T01:46:23.158Z,467.62
2023-04-18T01:46:33.886Z,467.39
2023-04-18T01:46:53.118Z,467.64
2023-04-18T01:47:03.158Z,467.52
2023-04-18T01:47:13.101Z,467.74
2023-04-18T01:47:23.121Z,467.71
2023-04-18T01:47:33.128Z,467.66
2023-04-18T01:47:43.109Z,467.43
2023-04-18T01:48:03.109Z,468.19
2023-04-18T01:48:13.091Z,467.66
2023-04-18T01:48:23.093Z,467.73
2023-04-18T01:48:33.094Z,467.85
2023-04-18T01:48:43.092Z,467.81
2023-04-18T01:48:53.092Z,467.96
2023-04-18T01:49:03.105Z,467.72
2023-04-18T01:49:13.092Z,467.83
2023-04-18T01:49:23.109Z,467.68
2023-04-18T01:49:33.129Z,468.12
2023-04-18T01:49:43.084Z,467.73
2023-04-18T01:49:53.096Z,467.81
2023-04-18T01:50:03.166Z,467.66
2023-04-18T01:50:13.118Z,467.72
2023-04-18T01:50:33.122Z,467.98
2023-04-18T01:50:43.113Z,467.60
2023-04-18T01:50:53.103Z,467.66
2023-04-18T01:51:03.103Z,467.79
2023-04-18T01:51:13.111Z,468.18
2023-04-18T01:51:23.108Z,467.95
2023-04-18T01:51:43.103Z,468.12
2023-04-18T01:51:53.110Z,468.10
2023-04-18T01:52:03.117Z,467.88
2023-04-18T01:52:13.103Z,467.89
2023-04-18T01:52:23.104Z,467.72
2023-04-18T01:52:33.118Z,468.08
2023-04-18T01:52:43.110Z,467.81
2023-04-18T01:53:03.113Z,468.46
2023-04-18T01:53:13.111Z,468.47
2023-04-18T01:53:23.107Z,468.27
2023-04-18T01:53:33.122Z,468.20
2023-04-18T01:53:43.122Z,468.19
2023-04-18T01:53:53.122Z,468.17
2023-04-18T01:54:03.126Z,468.17
2023-04-18T01:54:13.415Z,468.15
2023-04-18T01:54:23.122Z,468.32
2023-04-18T01:54:33.131Z,468.06
2023-04-18T01:54:43.129Z,468.27
2023-04-18T01:54:53.115Z,468.40
2023-04-18T01:55:03.175Z,468.17
2023-04-18T01:55:13.138Z,467.94
2023-04-18T01:55:23.119Z,467.93
2023-04-18T01:55:43.136Z,468.29
2023-04-18T01:55:53.133Z,468.42
2023-04-18T01:56:03.115Z,468.31
2023-04-18T01:56:13.139Z,468.25
2023-04-18T01:56:23.111Z,468.29
2023-04-18T01:56:33.136Z,468.33
2023-04-18T01:56:53.129Z,468.46
2023-04-18T01:57:03.129Z,468.37
2023-04-18T01:57:13.132Z,468.40
2023-04-18T01:57:23.125Z,468.37
2023-04-18T01:57:33.125Z,468.28
2023-04-18T01:57:43.131Z,468.50
2023-04-18T01:57:53.150Z,468.28
2023-04-18T01:58:03.133Z,468.45
2023-04-18T01:58:13.136Z,468.48
2023-04-18T01:58:23.166Z,468.56
2023-04-18T01:58:33.156Z,468.42
2023-04-18T01:58:43.132Z,468.63
2023-04-18T01:58:53.134Z,468.54
2023-04-18T01:59:03.140Z,468.54
2023-04-18T01:59:13.149Z,468.55
2023-04-18T01:59:23.133Z,468.54
2023-04-18T01:59:33.188Z,468.59
2023-04-18T01:59:43.138Z,468.66
2023-04-18T01:59:53.138Z,468.37
2023-04-18T02:00:03.154Z,468.33
2023-04-18T02:00:13.148Z,468.09
2023-04-18T02:00:23.142Z,468.42
2023-04-18T02:00:43.185Z,468.56
2023-04-18T02:00:53.169Z,468.27
2023-04-18T02:01:03.167Z,468.53
2023-04-18T02:01:13.201Z,468.30
2023-04-18T02:01:23.223Z,468.61
2023-04-18T02:01:33.146Z,468.51
2023-04-18T02:01:43.225Z,468.31
2023-04-18T02:01:53.218Z,468.42
2023-04-18T02:02:03.356Z,468.57
2023-04-18T02:02:13.282Z,468.20
2023-04-18T02:02:23.191Z,468.56
2023-04-18T02:02:33.433Z,468.95
2023-04-18T02:02:43.404Z,468.58
2023-04-18T02:02:53.294Z,468.74
2023-04-18T02:03:13.341Z,468.61
2023-04-18T02:03:23.270Z,468.67
2023-04-18T02:03:33.408Z,468.57
2023-04-18T02:03:43.476Z,468.29
2023-04-18T02:03:53.462Z,468.15
2023-04-18T02:04:03.258Z,468.65
2023-04-18T02:04:13.588Z,468.68
2023-04-18T02:04:23.355Z,468.51
2023-04-18T02:04:43.198Z,468.34
2023-04-18T02:04:53.182Z,468.41
2023-04-18T02:05:03.179Z,468.44
2023-04-18T02:05:13.173Z,468.52
2023-04-18T02:05:23.166Z,468.53
2023-04-18T02:05:33.164Z,468.35
2023-04-18T02:05:53.172Z,468.45
2023-04-18T02:06:03.177Z,468.48
2023-04-18T02:06:13.172Z,468.47
2023-04-18T02:06:23.174Z,468.42
2023-04-18T02:06:33.169Z,468.61
2023-04-18T02:06:43.188Z,468.52
2023-04-18T02:06:53.188Z,468.72
2023-04-18T02:07:03.236Z,468.57
2023-04-18T02:07:23.175Z,468.61
2023-04-18T02:07:33.177Z,468.69
2023-04-18T02:07:43.196Z,468.73
2023-04-18T02:07:53.205Z,468.51
2023-04-18T02:08:03.176Z,468.55
2023-04-18T02:08:13.189Z,468.74
2023-04-18T02:08:23.189Z,468.87
2023-04-18T02:08:33.189Z,468.88
2023-04-18T02:08:43.183Z,468.74
2023-04-18T02:08:53.195Z,468.91
2023-04-18T02:09:03.181Z,468.94
2023-04-18T02:09:13.191Z,468.99
2023-04-18T02:09:33.184Z,468.94
2023-04-18T02:09:43.199Z,468.93
2023-04-18T02:09:53.187Z,469.03
2023-04-18T02:10:03.188Z,468.87
2023-04-18T02:10:13.207Z,469.01
2023-04-18T02:10:23.196Z,469.22
2023-04-18T02:10:33.188Z,469.15
2023-04-18T02:10:43.265Z,469.09
2023-04-18T02:10:53.198Z,469.15
2023-04-18T02:11:03.209Z,469.10
2023-04-18T02:11:23.196Z,469.21
2023-04-18T02:11:33.227Z,469.18
2023-04-18T02:11:43.202Z,469.08
2023-04-18T02:11:53.193Z,469.18
2023-04-18T02:12:03.199Z,469.28
2023-04-18T02:12:13.194Z,469.27
2023-04-18T02:12:23.208Z,469.26
2023-04-18T02:12:43.218Z,469.50
2023-04-18T02:12:53.200Z,469.38
2023-04-18T02:13:03.203Z,469.41
2023-04-18T02:13:13.216Z,469.42
2023-04-18T02:13:23.202Z,469.37
2023-04-18T02:13:33.202Z,469.52
2023-04-18T02:13:43.216Z,469.32
2023-04-18T02:13:53.210Z,469.34
2023-04-18T02:14:03.221Z,469.44
2023-04-18T02:14:23.215Z,468.35
2023-04-18T02:14:33.207Z,469.13
2023-04-18T02:14:43.206Z,469.74
2023-04-18T02:14:53.246Z,469.74
2023-04-18T02:15:03.249Z,469.96
2023-04-18T02:15:13.230Z,470.07
2023-04-18T02:15:23.211Z,470.07
2023-04-18T02:15:33.218Z,470.08
2023-04-18T02:15:43.211Z,469.51
2023-04-18T02:16:03.230Z,469.91
2023-04-18T02:16:13.269Z,469.77
2023-04-18T02:16:23.314Z,469.83
2023-04-18T02:16:33.221Z,469.83
2023-04-18T02:16:43.258Z,469.61